sensor_id;sensor_type;location;lat;lon;timestamp;pressure;altitude;pressure_sealevel;temperature;humidity
16580;BME280;8402;51.466;6.806;2023-03-31T00:00:15;100211.38;;;12.61;90.93
16580;BME280;8402;51.466;6.806;2023-03-31T00:02:45;100203.56;;;12.60;91.00
16580;BME280;8402;51.466;6.806;2023-03-31T00:05:18;100196.53;;;12.59;91.07
16580;BME280;8402;51.466;6.806;2023-03-31T00:07:53;100191.09;;;12.59;91.18
16580;BME280;8402;51.466;6.806;2023-03-31T00:10:27;100194.16;;;12.57;91.22
16580;BME280;8402;51.466;6.806;2023-03-31T00:12:58;100195.06;;;12.61;91.26
16580;BME280;8402;51.466;6.806;2023-03-31T00:15:28;100184.97;;;12.62;91.35
16580;BME280;8402;51.466;6.806;2023-03-31T00:17:58;100177.25;;;12.64;91.22
16580;BME280;8402;51.466;6.806;2023-03-31T00:20:31;100179.66;;;12.65;91.03
16580;BME280;8402;51.466;6.806;2023-03-31T00:23:04;100167.63;;;12.66;91.12
16580;BME280;8402;51.466;6.806;2023-03-31T00:25:38;100165.69;;;12.67;90.97
16580;BME280;8402;51.466;6.806;2023-03-31T00:28:09;100162.16;;;12.66;90.78
16580;BME280;8402;51.466;6.806;2023-03-31T00:30:39;100156.38;;;12.68;90.77
16580;BME280;8402;51.466;6.806;2023-03-31T00:33:10;100155.69;;;12.71;91.04
16580;BME280;8402;51.466;6.806;2023-03-31T00:35:42;100152.53;;;12.69;91.13
16580;BME280;8402;51.466;6.806;2023-03-31T00:38:12;100147.06;;;12.69;91.13
16580;BME280;8402;51.466;6.806;2023-03-31T00:40:45;100139.03;;;12.73;90.80
16580;BME280;8402;51.466;6.806;2023-03-31T00:43:28;100131.19;;;12.71;90.99
16580;BME280;8402;51.466;6.806;2023-03-31T00:46:09;100118.03;;;12.73;91.40
16580;BME280;8402;51.466;6.806;2023-03-31T00:48:47;100113.84;;;12.76;90.65
16580;BME280;8402;51.466;6.806;2023-03-31T00:51:22;100120.06;;;12.76;90.76
16580;BME280;8402;51.466;6.806;2023-03-31T00:53:57;100106.91;;;12.78;91.06
16580;BME280;8402;51.466;6.806;2023-03-31T00:56:33;100110.44;;;12.79;91.71
16580;BME280;8402;51.466;6.806;2023-03-31T00:59:10;100120.06;;;12.76;92.02
16580;BME280;8402;51.466;6.806;2023-03-31T01:01:43;100109.88;;;12.73;92.59
16580;BME280;8402;51.466;6.806;2023-03-31T01:04:46;100104.66;;;12.68;93.96
16580;BME280;8402;51.466;6.806;2023-03-31T01:07:40;100107.16;;;12.73;93.24
16580;BME280;8402;51.466;6.806;2023-03-31T01:17:06;100091.19;;;12.72;93.19
16580;BME280;8402;51.466;6.806;2023-03-31T01:19:51;100082.09;;;12.67;93.58
16580;BME280;8402;51.466;6.806;2023-03-31T01:28:32;100066.78;;;12.63;94.64
16580;BME280;8402;51.466;6.806;2023-03-31T01:31:30;100063.84;;;12.56;95.68
16580;BME280;8402;51.466;6.806;2023-03-31T01:34:31;100052.53;;;12.54;96.20
16580;BME280;8402;51.466;6.806;2023-03-31T01:40:33;100024.41;;;12.50;96.71
16580;BME280;8402;51.466;6.806;2023-03-31T01:43:09;100016.50;;;12.45;97.51
16580;BME280;8402;51.466;6.806;2023-03-31T01:45:49;100010.28;;;12.44;97.17
16580;BME280;8402;51.466;6.806;2023-03-31T01:48:31;100011.06;;;12.45;97.09
16580;BME280;8402;51.466;6.806;2023-03-31T01:51:08;100013.88;;;12.48;97.04
16580;BME280;8402;51.466;6.806;2023-03-31T01:53:47;100000.38;;;12.52;96.93
16580;BME280;8402;51.466;6.806;2023-03-31T01:56:26;99994.16;;;12.51;97.17
16580;BME280;8402;51.466;6.806;2023-03-31T01:59:01;99990.28;;;12.52;96.67
16580;BME280;8402;51.466;6.806;2023-03-31T02:01:36;99994.25;;;12.55;96.61
16580;BME280;8402;51.466;6.806;2023-03-31T02:04:13;99981.78;;;12.54;96.57
16580;BME280;8402;51.466;6.806;2023-03-31T02:06:46;99975.53;;;12.53;96.67
16580;BME280;8402;51.466;6.806;2023-03-31T02:09:22;99965.00;;;12.52;96.79
16580;BME280;8402;51.466;6.806;2023-03-31T02:11:56;99959.91;;;12.50;97.08
16580;BME280;8402;51.466;6.806;2023-03-31T02:14:30;99949.34;;;12.49;97.20
16580;BME280;8402;51.466;6.806;2023-03-31T02:17:03;99942.69;;;12.46;96.85
16580;BME280;8402;51.466;6.806;2023-03-31T02:19:36;99936.03;;;12.44;97.12
16580;BME280;8402;51.466;6.806;2023-03-31T02:22:08;99927.16;;;12.47;97.19
16580;BME280;8402;51.466;6.806;2023-03-31T02:24:39;99934.88;;;12.45;98.05
16580;BME280;8402;51.466;6.806;2023-03-31T02:27:19;99918.34;;;12.37;98.20
16580;BME280;8402;51.466;6.806;2023-03-31T02:29:50;99920.59;;;12.35;98.68
16580;BME280;8402;51.466;6.806;2023-03-31T02:32:22;99911.66;;;12.35;98.48
16580;BME280;8402;51.466;6.806;2023-03-31T02:34:53;99905.44;;;12.34;99.21
16580;BME280;8402;51.466;6.806;2023-03-31T02:37:24;99891.81;;;12.34;99.29
16580;BME280;8402;51.466;6.806;2023-03-31T02:39:56;99888.66;;;12.32;99.93
16580;BME280;8402;51.466;6.806;2023-03-31T02:42:30;99882.31;;;12.28;100.00
16580;BME280;8402;51.466;6.806;2023-03-31T02:45:01;99868.28;;;12.26;100.00
16580;BME280;8402;51.466;6.806;2023-03-31T02:47:31;99855.84;;;12.25;100.00
16580;BME280;8402;51.466;6.806;2023-03-31T02:50:04;99857.41;;;12.26;100.00
16580;BME280;8402;51.466;6.806;2023-03-31T02:52:54;99846.78;;;12.21;100.00
16580;BME280;8402;51.466;6.806;2023-03-31T02:55:43;99834.78;;;12.22;100.00
16580;BME280;8402;51.466;6.806;2023-03-31T02:58:48;99828.88;;;12.20;100.00
16580;BME280;8402;51.466;6.806;2023-03-31T03:01:34;99815.38;;;12.24;100.00
16580;BME280;8402;51.466;6.806;2023-03-31T03:04:21;99800.66;;;12.25;100.00
16580;BME280;8402;51.466;6.806;2023-03-31T03:07:01;99803.00;;;12.26;100.00
16580;BME280;8402;51.466;6.806;2023-03-31T03:09:44;99804.59;;;12.27;100.00
16580;BME280;8402;51.466;6.806;2023-03-31T03:12:25;99784.88;;;12.30;100.00
16580;BME280;8402;51.466;6.806;2023-03-31T03:15:02;99778.28;;;12.31;100.00
16580;BME280;8402;51.466;6.806;2023-03-31T03:17:35;99775.31;;;12.36;100.00
16580;BME280;8402;51.466;6.806;2023-03-31T03:20:07;99759.19;;;12.44;100.00
16580;BME280;8402;51.466;6.806;2023-03-31T03:22:41;99767.78;;;12.46;100.00
16580;BME280;8402;51.466;6.806;2023-03-31T03:25:13;99769.34;;;12.47;100.00
16580;BME280;8402;51.466;6.806;2023-03-31T03:27:46;99764.34;;;12.49;100.00
16580;BME280;8402;51.466;6.806;2023-03-31T03:30:21;99758.22;;;12.52;100.00
16580;BME280;8402;51.466;6.806;2023-03-31T03:32:51;99748.53;;;12.54;100.00
16580;BME280;8402;51.466;6.806;2023-03-31T03:35:21;99740.03;;;12.56;100.00
16580;BME280;8402;51.466;6.806;2023-03-31T03:37:51;99729.94;;;12.56;100.00
16580;BME280;8402;51.466;6.806;2023-03-31T03:40:21;99725.38;;;12.60;100.00
16580;BME280;8402;51.466;6.806;2023-03-31T03:42:51;99720.28;;;12.59;100.00
16580;BME280;8402;51.466;6.806;2023-03-31T03:45:24;99721.44;;;12.58;100.00
16580;BME280;8402;51.466;6.806;2023-03-31T03:47:54;99714.50;;;12.60;100.00
16580;BME280;8402;51.466;6.806;2023-03-31T03:50:24;99703.25;;;12.62;100.00
16580;BME280;8402;51.466;6.806;2023-03-31T03:52:54;99709.13;;;12.64;100.00
16580;BME280;8402;51.466;6.806;2023-03-31T03:55:24;99688.94;;;12.65;100.00
16580;BME280;8402;51.466;6.806;2023-03-31T03:57:54;99677.72;;;12.66;100.00
16580;BME280;8402;51.466;6.806;2023-03-31T04:00:27;99693.31;;;12.70;100.00
16580;BME280;8402;51.466;6.806;2023-03-31T04:02:57;99690.25;;;12.71;100.00
16580;BME280;8402;51.466;6.806;2023-03-31T04:05:27;99664.63;;;12.72;100.00
16580;BME280;8402;51.466;6.806;2023-03-31T04:07:57;99645.69;;;12.60;100.00
16580;BME280;8402;51.466;6.806;2023-03-31T04:10:27;99644.38;;;12.54;100.00
16580;BME280;8402;51.466;6.806;2023-03-31T04:12:57;99640.44;;;12.51;100.00
16580;BME280;8402;51.466;6.806;2023-03-31T04:15:29;99643.47;;;12.50;100.00
16580;BME280;8402;51.466;6.806;2023-03-31T04:17:59;99661.41;;;12.51;100.00
16580;BME280;8402;51.466;6.806;2023-03-31T04:20:30;99653.25;;;12.51;100.00
16580;BME280;8402;51.466;6.806;2023-03-31T04:23:00;99670.00;;;12.53;100.00
16580;BME280;8402;51.466;6.806;2023-03-31T04:25:31;99639.28;;;12.52;100.00
16580;BME280;8402;51.466;6.806;2023-03-31T04:28:04;99627.88;;;12.47;100.00
16580;BME280;8402;51.466;6.806;2023-03-31T04:30:42;99618.81;;;12.43;100.00
16580;BME280;8402;51.466;6.806;2023-03-31T04:33:12;99621.53;;;12.43;100.00
16580;BME280;8402;51.466;6.806;2023-03-31T04:35:44;99599.78;;;12.43;100.00
16580;BME280;8402;51.466;6.806;2023-03-31T04:38:20;99569.44;;;12.40;100.00
16580;BME280;8402;51.466;6.806;2023-03-31T04:40:51;99582.97;;;12.37;100.00
16580;BME280;8402;51.466;6.806;2023-03-31T04:43:22;99587.16;;;12.34;100.00
16580;BME280;8402;51.466;6.806;2023-03-31T04:45:54;99581.72;;;12.34;100.00
16580;BME280;8402;51.466;6.806;2023-03-31T04:48:26;99570.78;;;12.31;100.00
16580;BME280;8402;51.466;6.806;2023-03-31T04:50:56;99564.56;;;12.30;100.00
16580;BME280;8402;51.466;6.806;2023-03-31T04:53:26;99552.72;;;12.23;100.00
16580;BME280;8402;51.466;6.806;2023-03-31T04:55:57;99534.81;;;12.22;100.00
16580;BME280;8402;51.466;6.806;2023-03-31T04:58:27;99538.59;;;12.17;100.00
16580;BME280;8402;51.466;6.806;2023-03-31T05:01:00;99516.84;;;12.17;100.00
16580;BME280;8402;51.466;6.806;2023-03-31T05:03:32;99515.97;;;12.13;100.00
16580;BME280;8402;51.466;6.806;2023-03-31T05:06:03;99503.09;;;12.10;100.00
16580;BME280;8402;51.466;6.806;2023-03-31T05:08:34;99494.16;;;12.09;100.00
16580;BME280;8402;51.466;6.806;2023-03-31T05:11:04;99493.34;;;12.09;100.00
16580;BME280;8402;51.466;6.806;2023-03-31T05:13:34;99482.38;;;12.05;100.00
16580;BME280;8402;51.466;6.806;2023-03-31T05:16:11;99474.59;;;12.04;100.00
16580;BME280;8402;51.466;6.806;2023-03-31T05:18:42;99469.16;;;12.04;100.00
16580;BME280;8402;51.466;6.806;2023-03-31T05:21:14;99479.59;;;12.02;100.00
16580;BME280;8402;51.466;6.806;2023-03-31T05:23:45;99480.28;;;11.99;100.00
16580;BME280;8402;51.466;6.806;2023-03-31T05:26:15;99470.13;;;11.96;100.00
16580;BME280;8402;51.466;6.806;2023-03-31T05:28:47;99470.13;;;11.96;100.00
16580;BME280;8402;51.466;6.806;2023-03-31T05:31:19;99472.84;;;11.96;100.00
16580;BME280;8402;51.466;6.806;2023-03-31T05:33:50;99461.63;;;11.97;100.00
16580;BME280;8402;51.466;6.806;2023-03-31T05:36:19;99467.41;;;11.96;100.00
16580;BME280;8402;51.466;6.806;2023-03-31T05:38:50;99458.53;;;11.99;100.00
16580;BME280;8402;51.466;6.806;2023-03-31T05:41:19;99457.75;;;11.98;100.00
16580;BME280;8402;51.466;6.806;2023-03-31T05:43:49;99453.09;;;11.99;100.00
16580;BME280;8402;51.466;6.806;2023-03-31T05:46:22;99448.81;;;11.98;100.00
16580;BME280;8402;51.466;6.806;2023-03-31T05:48:52;99447.66;;;11.99;100.00
16580;BME280;8402;51.466;6.806;2023-03-31T05:51:22;99437.25;;;12.01;100.00
16580;BME280;8402;51.466;6.806;2023-03-31T05:53:52;99432.59;;;12.01;100.00
16580;BME280;8402;51.466;6.806;2023-03-31T05:56:22;99429.53;;;12.03;100.00
16580;BME280;8402;51.466;6.806;2023-03-31T05:58:53;99424.78;;;12.00;100.00
16580;BME280;8402;51.466;6.806;2023-03-31T06:01:26;99415.94;;;12.03;100.00
16580;BME280;8402;51.466;6.806;2023-03-31T06:03:56;99430.38;;;12.07;100.00
16580;BME280;8402;51.466;6.806;2023-03-31T06:06:26;99423.44;;;12.09;100.00
16580;BME280;8402;51.466;6.806;2023-03-31T06:08:56;99425.09;;;12.14;100.00
16580;BME280;8402;51.466;6.806;2023-03-31T06:11:26;99413.78;;;12.12;100.00
16580;BME280;8402;51.466;6.806;2023-03-31T06:13:56;99412.72;;;12.17;100.00
16580;BME280;8402;51.466;6.806;2023-03-31T06:16:29;99415.97;;;12.22;100.00
16580;BME280;8402;51.466;6.806;2023-03-31T06:18:59;99410.06;;;12.20;100.00
16580;BME280;8402;51.466;6.806;2023-03-31T06:21:29;99407.06;;;12.25;100.00
16580;BME280;8402;51.466;6.806;2023-03-31T06:23:59;99413.66;;;12.24;100.00
16580;BME280;8402;51.466;6.806;2023-03-31T06:26:29;99402.06;;;12.27;100.00
16580;BME280;8402;51.466;6.806;2023-03-31T06:28:59;99407.16;;;12.29;100.00
16580;BME280;8402;51.466;6.806;2023-03-31T06:31:32;99401.34;;;12.30;100.00
16580;BME280;8402;51.466;6.806;2023-03-31T06:34:02;99395.91;;;12.30;100.00
16580;BME280;8402;51.466;6.806;2023-03-31T06:36:32;99404.50;;;12.32;100.00
16580;BME280;8402;51.466;6.806;2023-03-31T06:39:02;99402.94;;;12.31;100.00
16580;BME280;8402;51.466;6.806;2023-03-31T06:41:32;99406.06;;;12.33;100.00
16580;BME280;8402;51.466;6.806;2023-03-31T06:44:03;99397.91;;;12.33;100.00
16580;BME280;8402;51.466;6.806;2023-03-31T06:46:37;99394.41;;;12.33;100.00
16580;BME280;8402;51.466;6.806;2023-03-31T06:49:07;99395.03;;;12.26;100.00
16580;BME280;8402;51.466;6.806;2023-03-31T06:51:38;99392.75;;;12.28;100.00
16580;BME280;8402;51.466;6.806;2023-03-31T06:54:08;99384.94;;;12.27;100.00
16580;BME280;8402;51.466;6.806;2023-03-31T06:56:38;99395.03;;;12.26;100.00
16580;BME280;8402;51.466;6.806;2023-03-31T06:59:08;99394.25;;;12.26;100.00
16580;BME280;8402;51.466;6.806;2023-03-31T07:01:41;99391.91;;;12.24;100.00
16580;BME280;8402;51.466;6.806;2023-03-31T07:04:11;99388.31;;;12.20;100.00
16580;BME280;8402;51.466;6.806;2023-03-31T07:06:42;99387.03;;;12.14;100.00
16580;BME280;8402;51.466;6.806;2023-03-31T07:09:11;99391.66;;;12.13;100.00
16580;BME280;8402;51.466;6.806;2023-03-31T07:11:41;99393.19;;;12.11;100.00
16580;BME280;8402;51.466;6.806;2023-03-31T07:14:11;99385.75;;;12.08;100.00
16580;BME280;8402;51.466;6.806;2023-03-31T07:16:44;99386.03;;;12.03;100.00
16580;BME280;8402;51.466;6.806;2023-03-31T07:19:14;99371.28;;;12.04;100.00
16580;BME280;8402;51.466;6.806;2023-03-31T07:21:44;99380.66;;;12.06;100.00
16580;BME280;8402;51.466;6.806;2023-03-31T07:24:14;99377.59;;;12.08;100.00
16580;BME280;8402;51.466;6.806;2023-03-31T07:26:44;99367.56;;;12.12;100.00
16580;BME280;8402;51.466;6.806;2023-03-31T07:29:14;99369.91;;;12.13;100.00
16580;BME280;8402;51.466;6.806;2023-03-31T07:31:48;99371.44;;;12.11;100.00
16580;BME280;8402;51.466;6.806;2023-03-31T07:34:19;99372.56;;;12.10;100.00
16580;BME280;8402;51.466;6.806;2023-03-31T07:36:49;99376.00;;;12.07;100.00
16580;BME280;8402;51.466;6.806;2023-03-31T07:39:19;99365.13;;;12.07;100.00
16580;BME280;8402;51.466;6.806;2023-03-31T07:41:49;99374.44;;;12.06;100.00
16580;BME280;8402;51.466;6.806;2023-03-31T07:44:19;99373.63;;;12.05;100.00
16580;BME280;8402;51.466;6.806;2023-03-31T07:46:51;99377.59;;;12.08;100.00
16580;BME280;8402;51.466;6.806;2023-03-31T07:49:21;99372.06;;;12.04;100.00
16580;BME280;8402;51.466;6.806;2023-03-31T07:51:51;99373.63;;;12.05;100.00
16580;BME280;8402;51.466;6.806;2023-03-31T07:54:24;99376.00;;;12.07;100.00
16580;BME280;8402;51.466;6.806;2023-03-31T07:56:54;99371.38;;;12.07;100.00
16580;BME280;8402;51.466;6.806;2023-03-31T07:59:27;99369.88;;;12.10;100.00
16580;BME280;8402;51.466;6.806;2023-03-31T08:02:00;99356.69;;;12.12;100.00
16580;BME280;8402;51.466;6.806;2023-03-31T08:04:30;99356.19;;;12.06;100.00
16580;BME280;8402;51.466;6.806;2023-03-31T08:07:00;99352.69;;;12.06;100.00
16580;BME280;8402;51.466;6.806;2023-03-31T08:09:30;99335.94;;;12.04;100.00
16580;BME280;8402;51.466;6.806;2023-03-31T08:12:00;99340.97;;;12.02;100.00
16580;BME280;8402;51.466;6.806;2023-03-31T08:14:30;99335.56;;;12.05;100.00
16580;BME280;8402;51.466;6.806;2023-03-31T08:17:10;99338.66;;;12.04;100.00
16580;BME280;8402;51.466;6.806;2023-03-31T08:19:39;99332.81;;;12.02;100.00
16580;BME280;8402;51.466;6.806;2023-03-31T08:22:09;99336.38;;;12.06;100.00
16580;BME280;8402;51.466;6.806;2023-03-31T08:24:39;99319.72;;;12.07;100.00
16580;BME280;8402;51.466;6.806;2023-03-31T08:27:09;99319.78;;;12.11;100.00
16580;BME280;8402;51.466;6.806;2023-03-31T08:29:39;99312.47;;;12.15;100.00
16580;BME280;8402;51.466;6.806;2023-03-31T08:32:12;99319.91;;;12.18;100.00
16580;BME280;8402;51.466;6.806;2023-03-31T08:34:42;99308.75;;;12.23;100.00
16580;BME280;8402;51.466;6.806;2023-03-31T08:37:12;99310.38;;;12.28;100.00
16580;BME280;8402;51.466;6.806;2023-03-31T08:39:42;99314.75;;;12.32;100.00
16580;BME280;8402;51.466;6.806;2023-03-31T08:42:15;99312.44;;;12.34;100.00
16580;BME280;8402;51.466;6.806;2023-03-31T08:44:52;99296.69;;;12.44;100.00
16580;BME280;8402;51.466;6.806;2023-03-31T08:47:29;99308.50;;;12.51;100.00
16580;BME280;8402;51.466;6.806;2023-03-31T08:50:04;99296.97;;;12.58;100.00
16580;BME280;8402;51.466;6.806;2023-03-31T08:52:38;99295.94;;;12.66;100.00
16580;BME280;8402;51.466;6.806;2023-03-31T08:55:14;99302.66;;;12.72;100.00
16580;BME280;8402;51.466;6.806;2023-03-31T08:57:51;99304.69;;;12.79;100.00
16580;BME280;8402;51.466;6.806;2023-03-31T09:00:27;99302.44;;;12.84;100.00
16580;BME280;8402;51.466;6.806;2023-03-31T09:03:12;99298.25;;;12.90;100.00
16580;BME280;8402;51.466;6.806;2023-03-31T09:05:51;99302.66;;;12.99;100.00
16580;BME280;8402;51.466;6.806;2023-03-31T09:08:40;99291.47;;;13.04;100.00
16580;BME280;8402;51.466;6.806;2023-03-31T09:11:13;99293.84;;;13.05;100.00
16580;BME280;8402;51.466;6.806;2023-03-31T09:13:58;99296.19;;;13.07;100.00
16580;BME280;8402;51.466;6.806;2023-03-31T09:16:34;99290.03;;;13.10;100.00
16580;BME280;8402;51.466;6.806;2023-03-31T09:19:15;99291.59;;;13.11;100.00
16580;BME280;8402;51.466;6.806;2023-03-31T09:21:49;99284.28;;;13.15;100.00
16580;BME280;8402;51.466;6.806;2023-03-31T09:24:23;99278.53;;;13.20;100.00
16580;BME280;8402;51.466;6.806;2023-03-31T09:27:00;99273.91;;;13.24;100.00
16580;BME280;8402;51.466;6.806;2023-03-31T09:29:39;99266.91;;;13.23;100.00
16580;BME280;8402;51.466;6.806;2023-03-31T09:32:14;99264.19;;;13.23;100.00
16580;BME280;8402;51.466;6.806;2023-03-31T09:34:51;99256.28;;;13.18;100.00
16580;BME280;8402;51.466;6.806;2023-03-31T09:37:24;99255.25;;;13.26;100.00
16580;BME280;8402;51.466;6.806;2023-03-31T09:39:56;99252.22;;;13.31;100.00
16580;BME280;8402;51.466;6.806;2023-03-31T09:42:27;99250.69;;;13.34;100.00
16580;BME280;8402;51.466;6.806;2023-03-31T09:44:57;99246.09;;;13.38;100.00
16580;BME280;8402;51.466;6.806;2023-03-31T09:47:31;99241.84;;;13.40;100.00
16580;BME280;8402;51.466;6.806;2023-03-31T09:50:08;99227.91;;;13.45;100.00
16580;BME280;8402;51.466;6.806;2023-03-31T09:52:40;99222.53;;;13.53;100.00
16580;BME280;8402;51.466;6.806;2023-03-31T09:55:20;99221.09;;;13.62;100.00
16580;BME280;8402;51.466;6.806;2023-03-31T09:58:06;99222.03;;;13.77;100.00
16580;BME280;8402;51.466;6.806;2023-03-31T10:00:39;99225.72;;;13.92;100.00
16580;BME280;8402;51.466;6.806;2023-03-31T10:03:12;99216.50;;;14.03;100.00
16580;BME280;8402;51.466;6.806;2023-03-31T10:05:51;99209.56;;;14.10;99.60
16580;BME280;8402;51.466;6.806;2023-03-31T10:08:29;99219.72;;;14.13;99.07
16580;BME280;8402;51.466;6.806;2023-03-31T10:11:08;99212.63;;;14.04;97.90
16580;BME280;8402;51.466;6.806;2023-03-31T10:13:45;99212.22;;;14.06;98.54
16580;BME280;8402;51.466;6.806;2023-03-31T10:16:21;99221.97;;;14.03;98.13
16580;BME280;8402;51.466;6.806;2023-03-31T10:18:52;99226.94;;;13.94;98.77
16580;BME280;8402;51.466;6.806;2023-03-31T10:21:27;99226.84;;;13.87;97.60
16580;BME280;8402;51.466;6.806;2023-03-31T10:24:07;99224.84;;;13.84;98.37
16580;BME280;8402;51.466;6.806;2023-03-31T10:26:39;99216.34;;;13.89;98.92
16580;BME280;8402;51.466;6.806;2023-03-31T10:29:11;99221.47;;;13.94;99.05
16580;BME280;8402;51.466;6.806;2023-03-31T10:31:42;99211.44;;;14.02;99.71
16580;BME280;8402;51.466;6.806;2023-03-31T10:34:14;99208.34;;;14.07;99.23
16580;BME280;8402;51.466;6.806;2023-03-31T10:36:48;99199.50;;;14.17;99.14
16580;BME280;8402;51.466;6.806;2023-03-31T10:39:28;99203.06;;;14.25;99.15
16580;BME280;8402;51.466;6.806;2023-03-31T10:42:01;99194.97;;;14.32;98.87
16580;BME280;8402;51.466;6.806;2023-03-31T10:44:33;99189.50;;;14.36;98.60
16580;BME280;8402;51.466;6.806;2023-03-31T10:47:06;99194.31;;;14.46;98.39
16580;BME280;8402;51.466;6.806;2023-03-31T10:49:49;99189.72;;;14.53;97.93
16580;BME280;8402;51.466;6.806;2023-03-31T10:52:24;99189.75;;;14.61;97.80
16580;BME280;8402;51.466;6.806;2023-03-31T10:54:57;99190.59;;;14.65;98.23
16580;BME280;8402;51.466;6.806;2023-03-31T10:57:34;99206.09;;;14.57;96.31
16580;BME280;8402;51.466;6.806;2023-03-31T11:00:17;99202.97;;;14.51;95.96
16580;BME280;8402;51.466;6.806;2023-03-31T11:03:05;99212.56;;;14.38;96.01
16580;BME280;8402;51.466;6.806;2023-03-31T11:05:46;99206.69;;;14.36;96.01
16580;BME280;8402;51.466;6.806;2023-03-31T11:08:29;99201.97;;;14.33;96.49
16580;BME280;8402;51.466;6.806;2023-03-31T11:11:20;99219.91;;;14.34;95.19
16580;BME280;8402;51.466;6.806;2023-03-31T11:14:00;99212.56;;;14.38;94.21
16580;BME280;8402;51.466;6.806;2023-03-31T11:16:40;99206.75;;;14.43;95.23
16580;BME280;8402;51.466;6.806;2023-03-31T11:19:28;99209.88;;;14.45;94.03
16580;BME280;8402;51.466;6.806;2023-03-31T11:22:06;99210.31;;;14.47;93.30
16580;BME280;8402;51.466;6.806;2023-03-31T11:24:55;99203.69;;;14.48;92.33
16580;BME280;8402;51.466;6.806;2023-03-31T11:27:46;99201.78;;;14.52;91.52
16580;BME280;8402;51.466;6.806;2023-03-31T11:30:23;99199.13;;;14.63;92.43
16580;BME280;8402;51.466;6.806;2023-03-31T11:33:14;99194.47;;;14.64;89.92
16580;BME280;8402;51.466;6.806;2023-03-31T11:36:06;99203.88;;;14.70;89.80
16580;BME280;8402;51.466;6.806;2023-03-31T11:38:59;99204.69;;;14.74;89.03
16580;BME280;8402;51.466;6.806;2023-03-31T11:41:37;99201.63;;;14.79;88.79
16580;BME280;8402;51.466;6.806;2023-03-31T11:44:10;99207.81;;;14.76;87.63
16580;BME280;8402;51.466;6.806;2023-03-31T11:46:45;99203.91;;;14.77;86.25
16580;BME280;8402;51.466;6.806;2023-03-31T11:49:23;99194.59;;;14.81;87.76
16580;BME280;8402;51.466;6.806;2023-03-31T11:51:55;99195.03;;;14.87;87.91
16580;BME280;8402;51.466;6.806;2023-03-31T11:54:32;99194.59;;;14.85;85.71
16580;BME280;8402;51.466;6.806;2023-03-31T11:57:11;99200.88;;;14.89;86.58
16580;BME280;8402;51.466;6.806;2023-03-31T11:59:53;99199.31;;;14.88;85.95
16580;BME280;8402;51.466;6.806;2023-03-31T12:02:33;99194.25;;;14.90;84.74
16580;BME280;8402;51.466;6.806;2023-03-31T12:05:07;99179.09;;;14.96;85.26
16580;BME280;8402;51.466;6.806;2023-03-31T12:07:45;99178.75;;;15.01;85.29
16580;BME280;8402;51.466;6.806;2023-03-31T12:10:21;99180.69;;;15.04;85.57
16580;BME280;8402;51.466;6.806;2023-03-31T12:13:00;99174.06;;;15.02;85.19
16580;BME280;8402;51.466;6.806;2023-03-31T12:15:34;99183.03;;;15.02;85.15
16580;BME280;8402;51.466;6.806;2023-03-31T12:18:13;99167.34;;;14.89;84.19
16580;BME280;8402;51.466;6.806;2023-03-31T12:20:50;99173.09;;;14.76;84.64
16580;BME280;8402;51.466;6.806;2023-03-31T12:23:26;99175.13;;;14.86;85.71
16580;BME280;8402;51.466;6.806;2023-03-31T12:26:01;99171.63;;;14.86;85.46
16580;BME280;8402;51.466;6.806;2023-03-31T12:28:39;99171.25;;;14.91;85.87
16580;BME280;8402;51.466;6.806;2023-03-31T12:31:17;99183.34;;;14.90;84.99
16580;BME280;8402;51.466;6.806;2023-03-31T12:33:53;99175.19;;;14.97;85.96
16580;BME280;8402;51.466;6.806;2023-03-31T12:36:40;99170.13;;;14.96;85.00
16580;BME280;8402;51.466;6.806;2023-03-31T12:39:29;99173.63;;;14.96;85.42
16580;BME280;8402;51.466;6.806;2023-03-31T12:42:13;99159.63;;;15.01;86.31
16580;BME280;8402;51.466;6.806;2023-03-31T12:44:57;99161.97;;;15.06;85.96
16580;BME280;8402;51.466;6.806;2023-03-31T12:47:50;99157.31;;;15.10;85.97
16580;BME280;8402;51.466;6.806;2023-03-31T12:50:38;99149.53;;;15.16;86.50
16580;BME280;8402;51.466;6.806;2023-03-31T12:53:16;99143.34;;;15.26;86.73
16580;BME280;8402;51.466;6.806;2023-03-31T12:55:47;99136.72;;;15.31;85.83
16580;BME280;8402;51.466;6.806;2023-03-31T12:58:40;99122.69;;;15.32;84.52
16580;BME280;8402;51.466;6.806;2023-03-31T13:01:18;99124.66;;;15.42;85.25
16580;BME280;8402;51.466;6.806;2023-03-31T13:03:53;99109.84;;;15.47;84.94
16580;BME280;8402;51.466;6.806;2023-03-31T13:06:45;99104.38;;;15.47;83.42
16580;BME280;8402;51.466;6.806;2023-03-31T13:09:42;99095.78;;;15.45;82.81
16580;BME280;8402;51.466;6.806;2023-03-31T13:12:15;99112.97;;;15.56;82.97
16580;BME280;8402;51.466;6.806;2023-03-31T13:14:47;99103.63;;;15.57;83.06
16580;BME280;8402;51.466;6.806;2023-03-31T13:17:40;99117.31;;;15.57;82.70
16580;BME280;8402;51.466;6.806;2023-03-31T13:20:23;99097.38;;;15.60;82.16
16580;BME280;8402;51.466;6.806;2023-03-31T13:23:01;99103.63;;;15.57;79.64
16580;BME280;8402;51.466;6.806;2023-03-31T13:25:43;99096.56;;;15.56;79.69
16580;BME280;8402;51.466;6.806;2023-03-31T13:28:37;99103.69;;;15.64;79.43
16580;BME280;8402;51.466;6.806;2023-03-31T13:31:09;99086.50;;;15.67;81.02
16580;BME280;8402;51.466;6.806;2023-03-31T13:33:51;99098.19;;;15.72;78.57
16580;BME280;8402;51.466;6.806;2023-03-31T13:36:42;99093.91;;;15.67;77.42
16580;BME280;8402;51.466;6.806;2023-03-31T13:39:32;99107.56;;;15.71;76.79
16580;BME280;8402;51.466;6.806;2023-03-31T13:42:19;99091.97;;;15.75;76.98
16580;BME280;8402;51.466;6.806;2023-03-31T13:45:06;99102.13;;;15.78;75.00
16580;BME280;8402;51.466;6.806;2023-03-31T13:47:57;99104.47;;;15.83;75.60
16580;BME280;8402;51.466;6.806;2023-03-31T13:51:04;99096.66;;;15.78;74.62
16580;BME280;8402;51.466;6.806;2023-03-31T13:57:12;99090.44;;;15.88;76.28
16580;BME280;8402;51.466;6.806;2023-03-31T14:00:07;99095.09;;;15.91;75.68
16580;BME280;8402;51.466;6.806;2023-03-31T14:02:52;99094.72;;;15.89;73.91
16580;BME280;8402;51.466;6.806;2023-03-31T14:05:33;99071.28;;;16.02;75.41
16580;BME280;8402;51.466;6.806;2023-03-31T14:08:10;99077.94;;;16.08;74.65